• Join FlightAware (Why Join?)
  • Login
  • US Flag 
08:19PM EDT


 

Airport Tracker/Info


-or-


 

Live Flight TrackerFlight Track Log ✈ AWE3397 ✈ 01-May-2013 ✈ KPHL - KMSY

Flight Track Log - Related Links

Times and Time Zones

All times are in EDT time to prevent confusion due to time zone crossing. See the AWE3397 flight status page for this flight to view local times or setup timezone preferences in your user account.

Time Position Orientation Groundspeed Altitude Reporting Facility
EDT Latitude Longitude Course Direction KTS MPH feet Rate Location/Type
08:27AM 39.8833 -75.2167 241° Southwest 148 170 700  Level Philadelphia TRACON
08:29AM 39.9400 -75.1081 56° Northeast 185 213 4,000 1,860 Climbing New York Center
08:30AM 39.9903 -75.1600 322° Northwest 190 219 6,700 2,640 Climbing New York Center
08:31AM 39.8097 -75.9256 258° West  Level FlightAware Approximate
08:31AM 39.9675 -75.2669 255° West 196 226 9,300  Level New York Center
08:32AM 39.7918 -76.0659 261° West  Level FlightAware Approximate
08:32AM 39.9444 -75.3739 254° West 265 305 10,100  Level New York Center
08:33AM 39.7806 -76.2065 241° Southwest  Level FlightAware Approximate
08:33AM 39.9194 -75.4831 253° West 315 362 10,100  Level New York Center
08:34AM 39.8875 -75.5972 250° West 331 381 10,100 900 Level New York Center
08:35AM 39.8628 -75.6958 252° West 331 381 12,000 1,860 Climbing New York Center
08:36AM 39.8344 -75.8236 254° West 331 381 13,900 1,500 Climbing New York Center
08:37AM 39.8231 -75.9417 263° West 338 389 15,000 1,080 Climbing New York Center
08:38AM 39.8097 -76.0542 261° West 343 395 16,100 1,080 Climbing New York Center
08:39AM 39.7914 -76.1797 259° West 351 404 17,300 960 Climbing New York Center
08:40AM 39.7456 -76.3114 246° West 356 410 18,100 960 Climbing New York Center
08:41AM 39.7003 -76.4344 244° Southwest 378 435 19,300 1,140 Climbing New York Center
08:42AM 39.6792 -76.5678 258° West 378 435 20,400 1,140 Climbing New York Center
08:43AM 39.6681 -76.7044 264° West 378 435 21,600 1,200 Climbing New York Center
08:44AM 39.6367 -76.8314 252° West 378 435 22,800 1,200 Climbing New York Center
08:45AM 39.5483 -76.9261 220° Southwest 374 430 24,000 960 Climbing New York Center
08:47AM 39.4550 -77.0214 218° Southwest 393 452 25,000 780 Climbing Washington Center
08:48AM 39.3664 -77.1136 219° Southwest 408 470 25,800 840 Climbing Washington Center
08:49AM 39.2778 -77.2111 220° Southwest 414 476 26,800 960 Climbing Washington Center
08:50AM 39.1847 -77.3028 217° Southwest 425 489 27,800 960 Climbing Washington Center
08:51AM 39.0917 -77.4022 220° Southwest 430 495 28,700 840 Climbing Washington Center
08:52AM 38.9961 -77.5014 219° Southwest 430 495 29,600 840 Climbing Washington Center
08:53AM 38.8986 -77.6000 218° Southwest 440 506 30,400 780 Climbing Washington Center
08:54AM 38.7906 -77.7117 219° Southwest 452 520 31,200 780 Climbing Washington Center
08:55AM 38.6947 -77.8128 219° Southwest 459 528 32,000 360 Climbing Washington Center
08:56AM 38.6094 -77.9217 225° Southwest 443 510 32,000  Level Washington Center
08:57AM 38.5403 -78.0389 233° Southwest 426 490 32,000  Level Washington Center
08:58AM 38.4733 -78.1536 233° Southwest 418 481 32,000  Level Washington Center
08:59AM 38.4061 -78.2678 233° Southwest 413 475 32,000  Level Washington Center
09:00AM 38.3369 -78.3844 233° Southwest 413 475 32,000  Level Washington Center
09:01AM 38.2672 -78.5008 233° Southwest 413 475 32,000  Level Washington Center
09:02AM 38.2128 -78.6017 236° Southwest 405 466 32,000  Level Washington Center
09:03AM 38.1431 -78.7178 233° Southwest 405 466 32,000  Level Washington Center
09:04AM 38.0753 -78.8283 232° Southwest 405 466 32,000  Level Washington Center
09:05AM 37.9989 -78.9542 232° Southwest 405 466 32,000  Level Washington Center
09:06AM 37.9311 -79.0669 233° Southwest 405 466 32,000  Level Washington Center
09:07AM 37.8694 -79.1800 235° Southwest 405 466 32,000  Level Washington Center
09:08AM 37.8094 -79.2981 237° Southwest 400 460 32,000  Level Washington Center
09:09AM 37.7581 -79.4058 239° Southwest 400 460 32,000  Level Washington Center
09:10AM 37.6892 -79.5336 236° Southwest 400 460 32,000 -420 Level Washington Center
09:11AM 37.6378 -79.6411 239° Southwest 400 460 31,200 -960 Descending Washington Center
09:12AM 37.5708 -79.7683 236° Southwest 400 460 30,100 -600 Descending Washington Center
09:13AM 37.5122 -79.8908 239° Southwest 400 460 30,000 -60 Descending Washington Center
09:14AM 37.4561 -79.9975 236° Southwest 406 467 30,000  Level Washington Center
09:15AM 37.3975 -80.1172 238° Southwest 406 467 30,000  Level Washington Center
09:16AM 37.3281 -80.2467 236° Southwest 402 463 30,000  Level Atlanta Center
09:17AM 37.2689 -80.3617 237° Southwest 402 463 30,000  Level Atlanta Center
09:18AM 37.2078 -80.4767 236° Southwest 402 463 30,000  Level Atlanta Center
09:19AM 37.1464 -80.5939 237° Southwest 407 468 30,000  Level Atlanta Center
09:20AM 37.0972 -80.6978 239° Southwest 401 461 30,000  Level Atlanta Center
09:21AM 37.0464 -80.8219 243° Southwest 401 461 30,000  Level Atlanta Center
09:22AM 37.0014 -80.9461 246° West 401 461 30,000  Level Atlanta Center
09:23AM 36.9567 -81.0697 246° West 396 456 30,000  Level Atlanta Center
09:24AM 36.9078 -81.2067 246° West 391 450 30,000  Level Atlanta Center
09:25AM 36.8625 -81.3303 245° Southwest 391 450 30,000  Level Atlanta Center
09:26AM 36.8214 -81.4533 247° West 391 450 30,000  Level Atlanta Center
09:27AM 36.7781 -81.5767 246° West 391 450 30,000  Level Atlanta Center
09:28AM 36.7347 -81.6997 246° West 386 444 30,000  Level Atlanta Center
09:29AM 36.6889 -81.8203 245° Southwest 386 444 30,000  Level Atlanta Center
09:30AM 36.6431 -81.9431 245° Southwest 386 444 30,000  Level Atlanta Center
09:31AM 36.6014 -82.0631 247° West 386 444 30,000  Level Atlanta Center
09:32AM 36.5553 -82.1806 244° Southwest 386 444 30,000  Level Atlanta Center
09:33AM 36.5111 -82.3003 245° Southwest 386 444 30,000  Level Atlanta Center
09:34AM 36.4689 -82.4122 245° Southwest 380 437 30,000  Level Atlanta Center
09:35AM 36.4244 -82.5319 245° Southwest 375 432 30,000  Level Atlanta Center
09:36AM 36.3819 -82.6461 245° Southwest 375 432 30,000  Level Atlanta Center
09:37AM 36.3394 -82.7603 245° Southwest 370 426 30,000  Level Atlanta Center
09:38AM 36.2947 -82.8794 245° Southwest 370 426 30,000  Level Atlanta Center
09:39AM 36.2519 -82.9933 245° Southwest 370 426 30,000  Level Atlanta Center
09:40AM 36.2131 -83.0969 245° Southwest 370 426 30,000  Level Atlanta Center
09:41AM 36.1661 -83.2131 243° Southwest 370 426 30,000  Level Atlanta Center
09:42AM 36.1231 -83.3292 245° Southwest 370 426 30,000  Level Atlanta Center
09:43AM 36.0797 -83.4428 245° Southwest 370 426 30,000  Level Atlanta Center
09:44AM 36.0364 -83.5586 245° Southwest 370 426 30,000  Level Atlanta Center
09:45AM 35.9931 -83.6717 245° Southwest 375 432 30,000  Level Atlanta Center
09:46AM 35.9475 -83.7872 244° Southwest 375 432 30,000  Level Atlanta Center
09:47AM 35.9017 -83.8978 243° Southwest 375 432 30,000  Level Atlanta Center
09:48AM 35.8350 -83.9978 231° Southwest 375 432 30,000  Level Atlanta Center
09:49AM 35.7661 -84.0925 228° Southwest 375 432 30,000  Level Atlanta Center
09:50AM 35.6953 -84.1869 227° Southwest 380 437 30,000  Level Atlanta Center
09:51AM 35.6283 -84.2842 230° Southwest 380 437 30,000  Level Atlanta Center
09:52AM 35.5572 -84.3808 228° Southwest 385 443 30,000  Level Atlanta Center
09:53AM 35.4900 -84.4750 229° Southwest 385 443 30,000  Level Atlanta Center
09:54AM 35.4189 -84.5714 228° Southwest 385 443 30,000  Level Atlanta Center
09:55AM 35.3494 -84.6653 228° Southwest 385 443 30,000  Level Atlanta Center
09:56AM 35.2800 -84.7589 228° Southwest 385 443 30,000  Level Atlanta Center
09:57AM 35.2128 -84.8547 229° Southwest 385 443 30,000  Level Atlanta Center
09:58AM 35.1433 -84.9506 228° Southwest 385 443 30,000  Level Atlanta Center
09:59AM 35.0717 -85.0461 228° Southwest 385 443 30,000  Level Atlanta Center
10:00AM 35.0019 -85.1419 228° Southwest 385 443 30,000  Level Atlanta Center
10:01AM 34.9258 -85.2422 227° Southwest 385 443 30,000  Level Atlanta Center
10:02AM 34.8581 -85.3372 229° Southwest 385 443 30,000  Level Atlanta Center
10:03AM 34.7881 -85.4322 228° Southwest 385 443 30,000  Level Atlanta Center
10:04AM 34.7183 -85.5247 227° Southwest 385 443 30,000  Level Atlanta Center
10:05AM 34.6481 -85.6194 228° Southwest 385 443 30,000  Level Atlanta Center
10:06AM 34.5781 -85.7139 228° Southwest 385 443 30,000  Level Atlanta Center
10:07AM 34.5081 -85.8033 226° Southwest 385 443 30,000  Level Atlanta Center
10:08AM 34.4397 -85.8950 228° Southwest 380 437 30,000  Level Atlanta Center
10:09AM 34.3694 -85.9842 226° Southwest 380 437 30,000  Level Atlanta Center
10:10AM 34.2992 -86.0781 228° Southwest 380 437 30,000  Level Atlanta Center
10:11AM 34.2286 -86.1719 228° Southwest 380 437 30,000  Level Atlanta Center
10:12AM 34.1583 -86.2631 227° Southwest 380 437 30,000  Level Atlanta Center
10:13AM 34.0875 -86.3564 228° Southwest 380 437 30,000  Level Atlanta Center
10:14AM 34.0169 -86.4497 228° Southwest 385 443 30,000  Level Atlanta Center
10:15AM 33.9442 -86.5403 226° Southwest 385 443 30,000  Level Atlanta Center
10:16AM 33.8756 -86.6333 228° Southwest 385 443 30,000  Level Atlanta Center
10:17AM 33.8047 -86.7239 227° Southwest 385 443 30,000  Level Atlanta Center
10:18AM 33.7317 -86.8164 226° Southwest 385 443 30,000  Level Atlanta Center
10:19AM 33.6628 -86.9089 228° Southwest 385 443 30,000  Level Atlanta Center
10:20AM 33.6108 -86.9897 232° Southwest 385 443 30,000  Level Atlanta Center
10:21AM 33.5372 -87.0967 230° Southwest 385 443 30,000  Level Atlanta Center
10:22AM 33.4719 -87.1942 231° Southwest 385 443 30,000  Level Atlanta Center
10:24AM 33.3300 -87.4108 232° Southwest 387 445 30,000  Level Memphis Center
10:25AM 33.2633 -87.5100 231° Southwest 382 440 30,000  Level Memphis Center
10:26AM 33.1967 -87.6067 231° Southwest 382 440 30,000  Level Memphis Center
10:27AM 33.1300 -87.7078 232° Southwest 382 440 30,000  Level Memphis Center
10:28AM 33.0633 -87.8067 231° Southwest 382 440 30,000  Level Memphis Center
10:29AM 32.9942 -87.9028 229° Southwest 387 445 30,000  Level Memphis Center
10:30AM 32.9417 -87.9958 236° Southwest 382 440 30,000  Level Memphis Center
10:31AM 32.8725 -88.0917 229° Southwest 382 440 30,000  Level Memphis Center
10:32AM 32.7992 -88.1997 231° Southwest 382 440 30,000  Level Memphis Center
10:33AM 32.7319 -88.2953 230° Southwest 387 445 30,000  Level Memphis Center
10:34AM 32.6667 -88.3931 232° Southwest 387 445 30,000  Level Memphis Center
10:35AM 32.5994 -88.4931 231° Southwest 387 445 30,000  Level Memphis Center
10:36AM 32.5300 -88.5906 230° Southwest 387 445 30,000  Level Memphis Center
10:37AM 32.4603 -88.6881 230° Southwest 387 445 30,000  Level Memphis Center
10:38AM 32.3906 -88.7878 230° Southwest 387 445 30,000  Level Memphis Center
10:39AM 32.3122 -88.8728 223° Southwest 387 445 30,000  Level Memphis Center
10:40AM 32.2256 -88.9550 219° Southwest 393 452 30,000 -120 Level Memphis Center
10:41AM 32.1408 -89.0350 219° Southwest 393 452 29,800 -360 Descending Memphis Center
10:42AM 32.0581 -89.1169 220° Southwest 393 452 29,300 -540 Descending Memphis Center
10:43AM 31.9756 -89.1942 218° Southwest 393 452 28,800 -540 Descending Memphis Center
10:44AM 31.8947 -89.2733 220° Southwest 393 452 28,300 -360 Descending Memphis Center
10:45AM 31.7786 -89.3850 219° Southwest 375 432 28,000 -300 Descending Houston Center
10:46AM 31.6969 -89.4619 219° Southwest 377 434 27,600 -1,140 Descending Houston Center
10:47AM 31.6036 -89.5514 219° Southwest 373 429 25,700 -1,680 Descending Houston Center
10:48AM 31.5261 -89.6258 219° Southwest 362 417 24,200 -840 Descending Houston Center
10:49AM 31.4503 -89.6964 218° Southwest 350 403 24,000 -120 Descending Houston Center
10:50AM 31.3753 -89.7681 219° Southwest 348 400 24,000 -420 Level Houston Center
10:51AM 31.3006 -89.8389 219° Southwest 347 399 23,200 -1,260 Descending Houston Center
10:52AM 31.2117 -89.9225 219° Southwest 342 394 21,500 -1,500 Descending Houston Center
10:53AM 31.1411 -89.9908 220° Southwest 333 383 20,100 -1,380 Descending Houston Center
10:54AM 31.0694 -90.0572 218° Southwest 329 379 18,700 -1,380 Descending Houston Center
10:56AM 30.9997 -90.1231 219° Southwest 325 374 17,300 -1,380 Descending Houston Center
10:57AM 30.9306 -90.1869 218° Southwest 321 369 15,900 -1,320 Descending Houston Center
10:58AM 30.8553 -90.2264 204° Southwest 307 353 14,600 -1,500 Descending Houston Center
10:59AM 30.7550 -90.2183 176° South 300 345 12,900 -1,560 Descending Houston Center
10:59AM 30.7356 -90.2158 174° South 295 339 12,600 -1,380 Descending Houston Center
11:00AM 30.6753 -90.2125 177° South 290 334 11,500 -900 Descending Houston Center
11:01AM 30.5972 -90.2072 177° South 280 322 11,100 -780 Descending Houston Center
11:02AM 30.5228 -90.2269 193° South 288 331 10,000 -1,500 Descending Houston Center
11:03AM 30.4550 -90.2683 208° Southwest 278 320 8,100 -1,800 Descending Houston Center
11:04AM 30.3894 -90.3119 210° Southwest 274 315 6,400 -1,620 Descending Houston Center
11:05AM 30.3156 -90.3606 210° Southwest 262 302 4,700 -1,140 Descending Houston Center
11:06AM 30.2522 -90.4017 209° Southwest 258 297 4,000 -360 Descending Houston Center
11:07AM 30.2033 -90.4444 217° Southwest 220 253 4,000 -480 Level Houston Center
11:08AM 30.1778 -90.5031 243° Southwest 215 247 3,100 -900 Descending Houston Center
11:08AM 30.1758 -90.5081 246° West 229 264 3,000 -1,020 Descending Houston Center
11:09AM 30.1478 -90.5522 234° Southwest 198 228 2,100 -1,020 Descending Houston Center
11:09AM 30.1344 -90.5467 160° South 211 243 2,000  Descending Houston Center
11:10AM 30.0969 -90.5231 151° Southeast 187 215 2,100  Climbing Houston Center
11:10AM 30.0892 -90.5178 150° Southeast 195 224 2,000 -120 Descending Houston Center
11:11AM 30.0522 -90.4933 150° Southeast 187 215 2,000  Level Houston Center
11:11AM 30.0453 -90.4878 145° Southeast 189 217 2,000  Level Houston Center
11:12AM 30.0361 -90.4461 104° East 167 192 2,000  Level Houston Center
11:12AM 30.0353 -90.4350 95° East 177 204 2,000  Level Houston Center